createdAt,value
2023-04-09T00:02:01.626Z,5.30
2023-04-09T00:07:03.529Z,5.30
2023-04-09T00:12:05.855Z,5.30
2023-04-09T00:17:07.916Z,5.30
2023-04-09T00:22:09.800Z,5.30
2023-04-09T00:27:11.709Z,5.30
2023-04-09T00:32:13.791Z,5.30
2023-04-09T00:37:15.646Z,5.30
2023-04-09T00:42:18.025Z,5.30
2023-04-09T00:47:19.906Z,5.30
2023-04-09T00:52:21.917Z,5.30
2023-04-09T00:57:23.759Z,5.30
2023-04-09T01:02:26.557Z,5.20
2023-04-09T01:07:34.327Z,5.20
2023-04-09T01:12:36.086Z,5.20
2023-04-09T01:17:37.913Z,5.10
2023-04-09T01:22:45.544Z,5.10
2023-04-09T01:28:16.869Z,5.10
2023-04-09T01:33:20.483Z,5.00
2023-04-09T01:38:23.285Z,4.90
2023-04-09T01:43:26.400Z,4.90
2023-04-09T01:48:29.566Z,4.80
2023-04-09T01:53:31.423Z,4.70
2023-04-09T01:58:34.273Z,4.70
2023-04-09T02:03:41.269Z,4.60
2023-04-09T02:08:47.769Z,4.50
2023-04-09T02:13:50.279Z,4.50
2023-04-09T02:19:01.254Z,4.40
2023-04-09T02:24:03.204Z,4.20
2023-04-09T02:29:05.187Z,4.10
2023-04-09T02:34:07.100Z,4.00
2023-04-09T02:39:08.950Z,4.00
2023-04-09T02:44:11.192Z,4.10
2023-04-09T02:49:13.041Z,4.10
2023-04-09T02:54:14.963Z,4.20
2023-04-09T02:59:16.799Z,4.20
2023-04-09T03:04:18.739Z,4.20
2023-04-09T03:09:20.736Z,4.30
2023-04-09T03:14:22.875Z,4.30
2023-04-09T03:19:24.783Z,4.40
2023-04-09T03:24:26.635Z,4.40
2023-04-09T03:29:28.469Z,4.30
2023-04-09T03:34:30.474Z,4.30
2023-04-09T03:39:32.365Z,4.30
2023-04-09T03:44:34.380Z,4.30
2023-04-09T03:49:36.318Z,4.30
2023-04-09T03:54:38.141Z,4.40
2023-04-09T03:59:40.089Z,4.40
2023-04-09T04:04:41.927Z,4.40
2023-04-09T04:09:43.804Z,4.50
2023-04-09T04:14:45.718Z,4.50
2023-04-09T04:19:47.555Z,4.50
2023-04-09T04:24:49.454Z,4.40
2023-04-09T04:29:51.389Z,4.50
2023-04-09T04:34:53.300Z,4.50
2023-04-09T04:39:55.160Z,4.60
2023-04-09T04:44:57.365Z,4.60
2023-04-09T04:49:59.737Z,4.60
2023-04-09T04:55:01.565Z,4.70
2023-04-09T05:00:03.726Z,4.70
2023-04-09T05:05:05.956Z,4.80
2023-04-09T05:10:08.645Z,4.90
2023-04-09T05:15:10.567Z,4.90
2023-04-09T05:20:12.823Z,5.00
2023-04-09T05:25:16.223Z,5.10
2023-04-09T05:30:18.353Z,5.10
2023-04-09T05:35:20.417Z,5.20
2023-04-09T05:40:22.376Z,5.30
2023-04-09T05:45:24.424Z,5.30
2023-04-09T05:50:26.475Z,5.30
2023-04-09T05:55:28.367Z,5.30
2023-04-09T06:00:30.226Z,5.40
2023-04-09T06:05:32.140Z,5.50
2023-04-09T06:10:34.337Z,5.60
2023-04-09T06:15:38.275Z,5.80
2023-04-09T06:20:40.263Z,5.90
2023-04-09T06:25:43.136Z,5.90
2023-04-09T06:30:45.174Z,6.10
2023-04-09T06:35:47.066Z,6.20
2023-04-09T06:40:48.906Z,6.30
2023-04-09T06:45:51.445Z,6.40
2023-04-09T06:50:53.326Z,6.50
2023-04-09T06:55:57.038Z,6.40
2023-04-09T07:01:00.034Z,6.40
2023-04-09T07:06:02.134Z,6.50
2023-04-09T07:11:04.013Z,6.60
2023-04-09T07:16:06.033Z,6.60
2023-04-09T07:21:07.925Z,6.60
2023-04-09T07:26:10.428Z,6.60
2023-04-09T07:31:13.050Z,6.70
2023-04-09T07:36:14.944Z,6.70
2023-04-09T07:41:16.847Z,6.90
2023-04-09T07:46:20.831Z,7.00
2023-04-09T07:51:22.677Z,7.10
2023-04-09T07:56:24.533Z,7.10
2023-04-09T08:01:26.628Z,7.10
2023-04-09T08:06:28.458Z,7.10
2023-04-09T08:11:30.534Z,7.10
2023-04-09T08:16:32.464Z,7.10
2023-04-09T08:21:34.726Z,7.10
2023-04-09T08:26:36.767Z,7.00
2023-04-09T08:31:39.269Z,7.00
2023-04-09T08:36:41.253Z,7.00
2023-04-09T08:41:46.305Z,7.10
2023-04-09T08:46:48.132Z,7.20
2023-04-09T08:51:49.989Z,7.30
2023-04-09T08:56:51.856Z,7.50
2023-04-09T09:02:10.483Z,7.60
2023-04-09T09:07:12.558Z,7.70
2023-04-09T09:12:32.747Z,8.00
2023-04-09T09:17:34.797Z,8.40
2023-04-09T09:22:54.895Z,8.70
2023-04-09T09:28:08.183Z,9.00
2023-04-09T09:33:11.210Z,9.40
2023-04-09T09:38:13.117Z,9.60
2023-04-09T09:43:15.005Z,9.80
2023-04-09T09:48:16.946Z,10.10
2023-04-09T09:53:23.075Z,10.40
2023-04-09T09:58:41.686Z,10.70
2023-04-09T10:03:44.176Z,10.90
2023-04-09T10:08:49.377Z,10.90
2023-04-09T10:13:56.016Z,10.90
2023-04-09T10:18:59.131Z,10.90
2023-04-09T10:24:05.715Z,10.70
2023-04-09T10:29:14.628Z,10.80
2023-04-09T10:34:22.411Z,10.80
2023-04-09T10:39:29.691Z,10.80
2023-04-09T10:44:36.057Z,11.00
2023-04-09T10:49:39.686Z,11.40
2023-04-09T10:54:46.542Z,11.90
2023-04-09T10:59:53.202Z,12.00
2023-04-09T11:05:19.885Z,12.50
2023-04-09T11:10:21.974Z,12.60
2023-04-09T11:15:23.950Z,12.80
2023-04-09T11:20:26.530Z,13.00
2023-04-09T11:25:31.230Z,13.00
2023-04-09T11:30:34.483Z,13.00
2023-04-09T11:35:36.734Z,12.90
2023-04-09T11:40:48.025Z,12.80
2023-04-09T11:45:50.414Z,12.60
2023-04-09T11:50:52.688Z,12.40
2023-04-09T11:55:54.529Z,12.10
2023-04-09T12:00:58.865Z,11.90
2023-04-09T12:06:02.842Z,11.80
2023-04-09T12:11:10.137Z,11.90
2023-04-09T12:16:13.118Z,11.90
2023-04-09T12:21:19.173Z,11.90
2023-04-09T12:26:21.620Z,12.00
2023-04-09T12:31:23.677Z,12.00
2023-04-09T12:36:26.686Z,12.00
2023-04-09T12:41:28.568Z,12.00
2023-04-09T12:46:32.511Z,11.80
2023-04-09T12:51:35.005Z,11.70
2023-04-09T12:56:36.843Z,11.70
2023-04-09T13:06:40.672Z,11.70
2023-04-09T13:11:42.496Z,11.70
2023-04-09T13:16:44.331Z,11.70
2023-04-09T13:21:46.188Z,11.70
2023-04-09T13:26:48.060Z,11.70
2023-04-09T13:31:50.006Z,11.70
2023-04-09T13:36:52.015Z,11.80
2023-04-09T13:41:55.325Z,11.80
2023-04-09T13:46:57.145Z,11.80
2023-04-09T13:51:59.490Z,11.80
2023-04-09T13:57:01.734Z,11.80
2023-04-09T14:02:04.366Z,11.90
2023-04-09T14:07:06.322Z,11.70
2023-04-09T14:12:08.159Z,11.60
2023-04-09T14:17:09.991Z,11.50
2023-04-09T14:22:12.522Z,11.40
2023-04-09T14:27:16.663Z,11.30
2023-04-09T14:32:19.220Z,11.20
2023-04-09T14:37:22.213Z,11.20
2023-04-09T14:42:24.133Z,11.20
2023-04-09T14:47:26.091Z,11.20
2023-04-09T14:52:30.454Z,11.10
2023-04-09T14:57:32.632Z,11.00
2023-04-09T15:02:38.652Z,11.00
2023-04-09T15:07:40.700Z,11.00
2023-04-09T15:12:42.542Z,11.10
2023-04-09T15:17:44.554Z,11.10
2023-04-09T15:22:46.434Z,10.90
2023-04-09T15:27:48.297Z,10.80
2023-04-09T15:32:50.506Z,10.70
2023-04-09T15:37:52.568Z,10.60
2023-04-09T15:42:55.040Z,10.50
2023-04-09T15:47:57.068Z,10.50
2023-04-09T15:52:59.094Z,10.40
2023-04-09T15:58:00.913Z,10.40
2023-04-09T16:03:02.763Z,10.40
2023-04-09T16:08:04.722Z,10.30
2023-04-09T16:13:06.570Z,10.20
2023-04-09T16:18:10.136Z,10.10
2023-04-09T16:23:12.244Z,10.10
2023-04-09T16:28:15.447Z,10.10
2023-04-09T16:33:18.645Z,10.00
2023-04-09T16:38:20.744Z,10.00
2023-04-09T16:43:22.660Z,9.90
2023-04-09T16:48:25.652Z,9.90
2023-04-09T16:53:27.902Z,9.80
2023-04-09T16:58:30.312Z,9.80
2023-04-09T17:03:35.317Z,9.70
2023-04-09T17:08:37.225Z,9.70
2023-04-09T17:13:39.174Z,9.80
2023-04-09T17:18:43.218Z,9.50
2023-04-09T17:23:45.725Z,9.50
2023-04-09T17:28:50.776Z,9.40
2023-04-09T17:33:55.254Z,9.30
2023-04-09T17:38:57.207Z,9.20
2023-04-09T17:43:59.134Z,9.20
2023-04-09T17:49:01.078Z,9.20
2023-04-09T17:54:03.302Z,9.10
2023-04-09T17:59:05.389Z,9.00
2023-04-09T18:04:07.542Z,8.90
2023-04-09T18:09:09.593Z,8.80
2023-04-09T18:14:11.727Z,8.70
2023-04-09T18:19:14.916Z,8.60
2023-04-09T18:24:16.746Z,8.50
2023-04-09T18:29:18.616Z,8.40
2023-04-09T18:34:22.255Z,8.20
2023-04-09T18:39:24.474Z,8.10
2023-04-09T18:44:27.594Z,7.90
2023-04-09T18:49:29.421Z,7.80
2023-04-09T18:54:34.834Z,7.60
2023-04-09T18:59:36.684Z,7.50
2023-04-09T19:04:40.177Z,7.50
2023-04-09T19:09:43.490Z,7.30
2023-04-09T19:14:45.454Z,7.10
2023-04-09T19:19:47.575Z,7.00
2023-04-09T19:24:49.549Z,6.90
2023-04-09T19:29:51.516Z,6.80
2023-04-09T19:35:02.908Z,7.10
2023-04-09T19:40:05.617Z,6.70
2023-04-09T19:45:08.057Z,6.60
2023-04-09T19:50:11.403Z,6.60
2023-04-09T19:55:13.256Z,6.60
2023-04-09T20:00:15.340Z,6.50
2023-04-09T20:05:20.896Z,6.40
2023-04-09T20:10:22.799Z,6.40
2023-04-09T20:15:24.873Z,6.40
2023-04-09T20:20:27.234Z,6.30
2023-04-09T20:25:34.375Z,6.30
2023-04-09T20:30:36.895Z,6.20
2023-04-09T20:35:39.801Z,6.20
2023-04-09T20:40:41.963Z,6.10
2023-04-09T20:45:43.922Z,6.10
2023-04-09T20:50:45.781Z,6.10
2023-04-09T20:55:50.595Z,6.00
2023-04-09T21:00:52.460Z,6.00
2023-04-09T21:05:54.347Z,6.00
2023-04-09T21:10:56.452Z,6.10
2023-04-09T21:15:58.335Z,6.10
2023-04-09T21:21:02.258Z,6.10
2023-04-09T21:26:06.271Z,6.10
2023-04-09T21:31:10.598Z,6.20
2023-04-09T21:36:12.925Z,6.20
2023-04-09T21:41:14.952Z,6.20
2023-04-09T21:46:16.894Z,6.20
2023-04-09T21:51:18.858Z,6.10
2023-04-09T21:56:20.675Z,6.10
2023-04-09T22:01:29.118Z,6.20
2023-04-09T22:06:32.294Z,6.20
2023-04-09T22:11:34.458Z,6.10
2023-04-09T22:16:36.368Z,6.10
2023-04-09T22:21:38.245Z,6.20
2023-04-09T22:26:42.681Z,6.10
2023-04-09T22:31:45.130Z,6.20
2023-04-09T22:36:47.093Z,6.10
2023-04-09T22:41:49.210Z,6.20
2023-04-09T22:46:51.210Z,6.20
2023-04-09T22:51:53.485Z,6.20
2023-04-09T22:56:56.763Z,6.10
2023-04-09T23:01:58.714Z,6.10
2023-04-09T23:07:00.747Z,6.10
2023-04-09T23:12:02.847Z,6.10
2023-04-09T23:17:04.705Z,6.00
2023-04-09T23:22:06.946Z,6.00
2023-04-09T23:27:08.768Z,6.00
2023-04-09T23:32:10.688Z,6.00
2023-04-09T23:37:12.564Z,6.00
2023-04-09T23:42:14.679Z,5.90
2023-04-09T23:47:19.077Z,6.00
2023-04-09T23:52:20.903Z,6.00
2023-04-09T23:57:22.822Z,5.90
